X  Close Metar Aviation Weather Data     EGGW London Luton Airport
Temperature
17°C Temperature
12°C Dewpoint
73% Humidity



Wind
5 MPH
8 KM/H
2 M/S
4 KTS



250°
WSW
Current Conditions

Clear Clear
Pressure 1005.92 (hPa) - 29.7 (inHg)
Visibility 6.2 (mile) - 10 (km)
Airport
Airport-code EGGW

Location: London Luton Airport
Distance: 18 (mi)

Metar:
EGGW 160550Z AUTO 25004KT 9999 NCD 17/12 Q1006

Time: 16-08-2022 06:50 BST